Time;durP1;ratioP1;P1;durP2;ratioP2;P2;SDS_P1;SDS_P2;PMS_P1;PMS_P2;Temp;Humidity;BMP_temperature;BMP_pressure;BME280_temperature;BME280_humidity;BME280_pressure;Samples;Min_cycle;Max_cycle;Signal;HPM_P1;HPM_P2
2023/09/19 00:00:24;;;;;;;6.20;1.90;;;;;;;13.97;100.00;100724.28;6191588;23;20028;-80
2023/09/19 00:02:59;;;;;;;4.57;1.50;;;;;;;13.91;100.00;100730.75;6219502;23;20440;-81
2023/09/19 00:05:28;;;;;;;5.20;1.70;;;;;;;13.87;100.00;100730.94;6218096;23;20513;-80
2023/09/19 00:08:00;;;;;;;12.13;2.25;;;;;;;13.86;100.00;100734.06;6191469;23;20020;-81
2023/09/19 00:10:30;;;;;;;8.90;2.08;;;;;;;13.82;100.00;100734.25;6191617;23;20024;-81
2023/09/19 00:13:05;;;;;;;3.50;1.70;;;;;;;13.79;100.00;100737.09;6219119;23;20028;-80
2023/09/19 00:15:37;;;;;;;4.28;1.70;;;;;;;13.76;100.00;100743.38;6192168;23;20041;-80
2023/09/19 00:18:08;;;;;;;8.00;1.85;;;;;;;13.76;100.00;100751.41;6219390;23;20463;-80
2023/09/19 00:20:36;;;;;;;2.25;1.50;;;;;;;13.78;100.00;100751.69;6167014;23;20072;-80
2023/09/19 00:23:04;;;;;;;4.20;1.42;;;;;;;13.79;100.00;100753.16;6191869;23;20021;-80
2023/09/19 00:25:35;;;;;;;6.35;2.28;;;;;;;13.75;100.00;100749.91;6218281;23;20013;-80
2023/09/19 00:28:02;;;;;;;3.00;1.80;;;;;;;13.73;100.00;100750.38;6219107;23;20013;-80
2023/09/19 00:30:29;;;;;;;3.28;1.50;;;;;;;13.72;100.00;100743.56;6191260;23;20470;-80
2023/09/19 00:32:55;;;;;;;3.83;2.00;;;;;;;13.71;100.00;100749.38;6192177;23;20052;-80
2023/09/19 00:35:25;;;;;;;15.35;1.58;;;;;;;13.70;100.00;100762.00;6217569;23;20013;-79
2023/09/19 00:37:52;;;;;;;3.67;1.77;;;;;;;13.66;100.00;100748.06;6219118;23;20017;-79
2023/09/19 00:40:21;;;;;;;5.45;1.80;;;;;;;13.66;100.00;100761.44;6165867;23;20017;-78
2023/09/19 00:42:49;;;;;;;4.38;1.77;;;;;;;13.66;100.00;100759.50;6192607;23;20017;-80
2023/09/19 00:45:17;;;;;;;5.95;2.03;;;;;;;13.67;100.00;100758.31;6166695;23;20018;-79
2023/09/19 00:47:48;;;;;;;6.22;1.60;;;;;;;13.67;100.00;100754.91;6192631;23;20040;-79
2023/09/19 00:50:22;;;;;;;2.67;1.55;;;;;;;13.69;100.00;100766.63;6190941;23;20017;-79
2023/09/19 00:52:53;;;;;;;19.02;1.80;;;;;;;13.68;100.00;100764.41;6218846;23;20018;-79
2023/09/19 00:55:20;;;;;;;4.88;1.55;;;;;;;13.69;100.00;100758.59;6191280;23;20028;-79
2023/09/19 00:57:49;;;;;;;5.40;1.70;;;;;;;13.69;100.00;100758.59;6191782;23;20097;-80
2023/09/19 01:00:20;;;;;;;6.43;1.85;;;;;;;13.67;100.00;100768.28;6218487;23;20466;-80
2023/09/19 01:02:47;;;;;;;4.90;2.15;;;;;;;13.65;100.00;100770.66;6219230;23;20441;-79
2023/09/19 01:05:15;;;;;;;3.70;1.70;;;;;;;13.68;100.00;100772.41;6190777;23;20474;-79
2023/09/19 01:07:48;;;;;;;6.85;1.80;;;;;;;13.67;100.00;100777.03;6191939;23;20462;-79
2023/09/19 01:10:20;;;;;;;8.52;2.00;;;;;;;13.68;100.00;100783.84;6218220;23;20474;-79
2023/09/19 01:13:08;;;;;;;;;;;;;;;13.69;100.00;100774.63;6219203;23;20021;-79
2023/09/19 01:16:05;;;;;;;6.90;1.90;;;;;;;13.68;100.00;100778.50;6157105;23;19974;-79
2023/09/19 01:19:09;;;;;;;3.58;1.45;;;;;;;13.68;100.00;100780.44;6166719;23;20025;-79
2023/09/19 01:21:59;;;;;;;4.18;2.03;;;;;;;13.66;100.00;100780.91;6191411;23;20439;-79
2023/09/19 01:25:05;;;;;;;2.90;1.58;;;;;;;13.65;100.00;100781.38;6191439;23;20593;-79
2023/09/19 01:28:03;;;;;;;5.38;1.52;;;;;;;13.64;100.00;100769.91;6218268;23;20100;-79
2023/09/19 01:30:36;;;;;;;7.53;2.00;;;;;;;13.64;100.00;100779.88;6217709;23;20426;-79
2023/09/19 01:33:06;;;;;;;7.15;1.55;;;;;;;13.62;100.00;100777.66;6218684;23;20084;-79
2023/09/19 01:35:34;;;;;;;3.00;2.10;;;;;;;13.63;100.00;100781.81;6190496;23;20060;-80
2023/09/19 01:38:00;;;;;;;6.75;1.80;;;;;;;13.62;100.00;100785.69;6191918;23;20459;-80
2023/09/19 01:40:27;;;;;;;5.57;2.05;;;;;;;13.63;100.00;100773.78;6190623;23;20168;-80
2023/09/19 01:43:18;;;;;;;2.88;2.00;;;;;;;13.63;100.00;100776.47;6191641;23;20507;-79
2023/09/19 01:46:01;;;;;;;9.45;2.22;;;;;;;13.62;100.00;100787.63;6166750;23;20060;-80
2023/09/19 01:48:46;;;;;;;8.32;2.35;;;;;;;13.61;100.00;100781.53;6165626;23;20017;-80
2023/09/19 01:51:20;;;;;;;4.85;1.90;;;;;;;13.60;100.00;100784.66;6190961;23;20025;-80
2023/09/19 01:53:56;;;;;;;9.55;2.47;;;;;;;13.59;100.00;100781.28;6218568;23;20013;-80
2023/09/19 01:56:32;;;;;;;12.18;2.50;;;;;;;13.61;100.00;100788.81;6217579;23;20028;-80
2023/09/19 01:59:06;;;;;;;8.50;2.30;;;;;;;13.60;100.00;100793.44;6191405;23;20017;-80
2023/09/19 02:01:34;;;;;;;13.80;2.30;;;;;;;13.60;100.00;100792.69;6166224;23;20029;-80
2023/09/19 02:04:02;;;;;;;7.60;2.22;;;;;;;13.57;100.00;100790.97;6190608;23;20021;-80
2023/09/19 02:06:32;;;;;;;8.10;2.30;;;;;;;13.56;100.00;100789.47;6217511;23;20471;-80
2023/09/19 02:08:59;;;;;;;10.05;2.47;;;;;;;13.54;100.00;100792.63;6191566;23;20017;-80
2023/09/19 02:11:26;;;;;;;4.57;2.28;;;;;;;13.55;100.00;100788.75;6190375;23;20111;-79
2023/09/19 02:13:54;;;;;;;7.03;2.63;;;;;;;13.54;100.00;100789.94;6191194;23;20021;-79
2023/09/19 02:16:21;;;;;;;8.02;2.58;;;;;;;13.52;100.00;100786.97;6190235;23;20025;-79
2023/09/19 02:18:49;;;;;;;7.40;2.38;;;;;;;13.51;100.00;100779.41;6190939;23;20103;-79
2023/09/19 02:21:17;;;;;;;7.18;2.42;;;;;;;13.50;100.00;100776.00;6217693;23;20071;-79
2023/09/19 02:23:47;;;;;;;4.78;1.80;;;;;;;13.48;100.00;100778.41;6190949;23;20021;-79
2023/09/19 02:26:13;;;;;;;6.78;2.35;;;;;;;13.47;100.00;100778.84;6190634;23;20482;-80
2023/09/19 02:28:40;;;;;;;13.20;2.25;;;;;;;13.46;100.00;100783.47;6191720;23;20087;-79
2023/09/19 02:31:08;;;;;;;10.90;2.33;;;;;;;13.45;100.00;100791.94;6191831;23;20052;-80
2023/09/19 02:33:35;;;;;;;5.55;1.77;;;;;;;13.45;100.00;100791.94;6218286;23;20013;-79
2023/09/19 02:36:04;;;;;;;8.60;2.35;;;;;;;13.44;100.00;100791.19;6219632;23;20447;-80
2023/09/19 02:38:32;;;;;;;5.57;1.80;;;;;;;13.43;100.00;100794.34;6192784;23;20084;-80
2023/09/19 02:40:59;;;;;;;8.50;2.60;;;;;;;13.41;100.00;100802.81;6218953;23;20013;-80
2023/09/19 02:43:25;;;;;;;11.00;2.45;;;;;;;13.38;100.00;100801.03;6191975;23;20439;-80
2023/09/19 02:45:57;;;;;;;13.00;2.03;;;;;;;13.34;100.00;100803.16;6192346;23;20041;-80
2023/09/19 02:48:25;;;;;;;5.13;2.30;;;;;;;13.30;100.00;100802.59;6218495;23;20017;-79
2023/09/19 02:50:52;;;;;;;12.05;2.50;;;;;;;13.29;100.00;100793.09;6192265;23;20145;-80
2023/09/19 02:53:18;;;;;;;11.77;2.63;;;;;;;13.25;100.00;100797.88;6218687;23;20018;-80
2023/09/19 02:55:47;;;;;;;9.65;2.40;;;;;;;13.22;100.00;100802.19;6167738;23;20032;-80
2023/09/19 02:58:14;;;;;;;12.60;2.95;;;;;;;13.18;100.00;100798.97;6218673;23;20391;-79
2023/09/19 03:00:42;;;;;;;9.38;2.28;;;;;;;13.16;100.00;100797.94;6218184;23;20017;-79
2023/09/19 03:03:09;;;;;;;5.20;2.10;;;;;;;13.12;100.00;100806.09;6191978;23;20088;-79
2023/09/19 03:05:38;;;;;;;8.82;2.15;;;;;;;13.07;100.00;100806.72;6218812;23;20087;-79
2023/09/19 03:08:05;;;;;;;7.85;2.17;;;;;;;13.05;100.00;100808.38;6219255;23;20462;-79
2023/09/19 03:10:31;;;;;;;5.82;2.30;;;;;;;12.99;100.00;100794.88;6192241;23;20013;-79
2023/09/19 03:13:01;;;;;;;5.93;2.00;;;;;;;12.95;100.00;100795.06;6167485;23;20059;-79
2023/09/19 03:15:29;;;;;;;11.55;2.35;;;;;;;12.88;100.00;100786.63;6191082;23;20017;-80
2023/09/19 03:17:57;;;;;;;7.38;1.88;;;;;;;12.87;100.00;100799.25;6192150;23;20469;-81
2023/09/19 03:20:25;;;;;;;8.70;2.50;;;;;;;12.84;100.00;100797.47;6218429;23;20048;-80
2023/09/19 03:22:52;;;;;;;6.95;1.90;;;;;;;12.80;100.00;100796.91;6167275;23;20021;-80
2023/09/19 03:25:19;;;;;;;8.48;2.63;;;;;;;12.76;100.00;100799.03;6166943;23;20105;-80
2023/09/19 03:27:49;;;;;;;11.52;2.78;;;;;;;12.72;100.00;100798.44;6192134;23;20096;-81
2023/09/19 03:30:16;;;;;;;15.40;2.53;;;;;;;12.68;100.00;100803.94;6191438;23;20024;-81
2023/09/19 03:32:44;;;;;;;5.35;2.25;;;;;;;12.66;100.00;100803.66;6191688;23;20041;-80
2023/09/19 03:35:13;;;;;;;5.70;2.03;;;;;;;12.64;100.00;100803.38;6191504;23;20027;-81
2023/09/19 03:37:42;;;;;;;7.95;2.83;;;;;;;12.61;100.00;100795.53;6167250;23;20052;-81
2023/09/19 03:40:10;;;;;;;8.43;2.33;;;;;;;12.58;100.00;100804.44;6191318;23;20021;-81
2023/09/19 03:42:41;;;;;;;10.15;2.38;;;;;;;12.55;100.00;100800.00;6191823;23;20040;-80
2023/09/19 03:45:14;;;;;;;4.47;1.77;;;;;;;12.50;100.00;100789.91;6191261;23;20025;-79
2023/09/19 03:47:47;;;;;;;11.82;2.17;;;;;;;12.46;100.00;100792.00;6191886;23;20023;-79
2023/09/19 03:50:17;;;;;;;11.70;2.50;;;;;;;12.43;100.00;100793.66;6167587;23;20021;-79
2023/09/19 03:52:44;;;;;;;11.55;2.42;;;;;;;12.40;100.00;100793.81;6167018;23;20032;-79
2023/09/19 03:55:11;;;;;;;7.82;1.75;;;;;;;12.38;100.00;100802.28;6218715;23;20017;-80
2023/09/19 03:57:39;;;;;;;5.68;2.40;;;;;;;12.32;100.00;100793.41;6191775;23;20021;-80
2023/09/19 04:00:11;;;;;;;7.18;2.60;;;;;;;12.30;100.00;100803.78;6191224;23;20021;-81
2023/09/19 04:02:39;;;;;;;9.60;2.42;;;;;;;12.26;100.00;100811.97;6192026;23;20076;-80
2023/09/19 04:05:07;;;;;;;8.05;2.30;;;;;;;12.24;100.00;100817.00;6191699;23;20031;-80
2023/09/19 04:07:34;;;;;;;6.78;1.98;;;;;;;12.24;100.00;100813.59;6191300;23;20017;-80
2023/09/19 04:10:02;;;;;;;19.95;2.33;;;;;;;12.19;100.00;100817.59;6192171;23;20379;-81
2023/09/19 04:12:29;;;;;;;8.05;2.45;;;;;;;12.18;100.00;100826.06;6218268;23;20417;-79
2023/09/19 04:14:56;;;;;;;8.68;1.98;;;;;;;12.16;100.00;100828.44;6218282;23;20471;-80
2023/09/19 04:17:23;;;;;;;12.38;2.03;;;;;;;12.12;100.00;100836.59;6191123;23;20017;-80
2023/09/19 04:19:50;;;;;;;9.68;2.25;;;;;;;12.10;100.00;100830.94;6191811;23;20390;-80
2023/09/19 04:22:17;;;;;;;7.80;2.22;;;;;;;12.09;100.00;100828.72;6218433;23;20013;-80
2023/09/19 04:24:45;;;;;;;7.38;2.10;;;;;;;12.06;100.00;100833.03;6192057;23;20438;-80
2023/09/19 04:27:14;;;;;;;12.40;2.35;;;;;;;12.06;100.00;100848.31;6167058;23;20024;-80
2023/09/19 04:29:44;;;;;;;6.18;1.95;;;;;;;12.02;100.00;100854.53;6218200;23;20020;-80
2023/09/19 04:32:13;;;;;;;8.82;2.25;;;;;;;12.01;100.00;100858.38;6191199;23;20021;-80
2023/09/19 04:34:39;;;;;;;8.75;2.53;;;;;;;12.01;100.00;100858.38;6218450;23;20067;-79
2023/09/19 04:37:06;;;;;;;4.78;2.17;;;;;;;11.99;100.00;100857.38;6218546;23;20017;-79
2023/09/19 04:39:33;;;;;;;11.10;2.58;;;;;;;11.98;100.00;100864.63;6218510;23;20013;-80
2023/09/19 04:42:00;;;;;;;9.68;2.17;;;;;;;11.98;100.00;100874.56;6191110;23;20468;-80
2023/09/19 04:44:27;;;;;;;4.85;2.00;;;;;;;11.98;100.00;100877.22;6218105;23;20017;-80
2023/09/19 04:46:54;;;;;;;14.45;2.88;;;;;;;11.96;100.00;100875.00;6218657;23;20017;-79
2023/09/19 04:49:21;;;;;;;19.33;2.80;;;;;;;11.98;100.00;100874.56;6218195;23;20017;-80
2023/09/19 04:51:47;;;;;;;3.45;2.15;;;;;;;11.97;100.00;100873.81;6218674;23;20617;-80
2023/09/19 04:54:14;;;;;;;7.88;1.95;;;;;;;11.97;100.00;100875.75;6218380;23;20104;-79
2023/09/19 04:56:41;;;;;;;11.93;2.33;;;;;;;11.97;100.00;100867.75;6191409;23;20068;-80
2023/09/19 04:59:10;;;;;;;8.68;2.30;;;;;;;11.94;100.00;100856.03;6191906;23;20424;-81
2023/09/19 05:01:37;;;;;;;6.28;1.98;;;;;;;11.94;100.00;100857.97;6218339;23;20433;-80
2023/09/19 05:04:04;;;;;;;7.93;2.40;;;;;;;11.95;100.00;100862.84;6167184;23;20044;-81
2023/09/19 05:06:31;;;;;;;7.95;2.45;;;;;;;11.94;100.00;100866.72;6166478;23;20459;-81
2023/09/19 05:08:57;;;;;;;11.32;2.67;;;;;;;11.95;100.00;100870.13;6167079;23;20028;-80
2023/09/19 05:11:24;;;;;;;11.93;2.25;;;;;;;11.93;100.00;100865.22;6217300;23;20021;-80
2023/09/19 05:13:52;;;;;;;9.25;2.42;;;;;;;11.97;100.00;100873.81;6218803;23;20025;-80
2023/09/19 05:16:19;;;;;;;14.65;2.78;;;;;;;11.97;100.00;100873.09;6191008;23;20478;-81
2023/09/19 05:18:46;;;;;;;8.13;1.83;;;;;;;11.96;100.00;100876.94;6191596;23;20021;-80
2023/09/19 05:21:13;;;;;;;7.65;2.30;;;;;;;11.98;100.00;100879.91;6191447;23;20024;-80
2023/09/19 05:23:39;;;;;;;4.55;2.00;;;;;;;11.98;100.00;100872.63;6191180;23;20026;-80
2023/09/19 05:26:06;;;;;;;5.65;2.15;;;;;;;11.98;100.00;100869.22;6191154;23;20021;-80
2023/09/19 05:28:34;;;;;;;10.48;1.98;;;;;;;12.00;100.00;100880.16;6191724;23;20451;-81
2023/09/19 05:31:04;;;;;;;9.60;2.33;;;;;;;12.01;100.00;100881.66;6166600;23;20021;-80
2023/09/19 05:33:31;;;;;;;11.23;2.58;;;;;;;12.01;100.00;100874.38;6218222;23;20025;-81
2023/09/19 05:35:59;;;;;;;8.80;2.42;;;;;;;12.02;100.00;100872.47;6218605;23;20084;-81
2023/09/19 05:38:27;;;;;;;10.45;2.30;;;;;;;12.07;100.00;100871.13;6217592;23;20017;-81
2023/09/19 05:40:54;;;;;;;8.57;2.00;;;;;;;12.10;100.00;100870.97;6190483;23;20025;-80
2023/09/19 05:43:21;;;;;;;8.13;2.08;;;;;;;12.13;100.00;100866.69;6217611;23;20068;-83
2023/09/19 05:45:48;;;;;;;7.72;2.20;;;;;;;12.17;100.00;100867.28;6218540;23;20013;-80
2023/09/19 05:48:16;;;;;;;9.05;2.22;;;;;;;12.17;100.00;100868.00;6191841;23;20017;-84
2023/09/19 05:50:48;;;;;;;6.10;1.90;;;;;;;12.17;100.00;100864.59;6191148;23;20138;-89
2023/09/19 05:53:15;;;;;;;9.00;2.10;;;;;;;12.19;100.00;100873.66;6166652;23;20491;-80
2023/09/19 05:55:43;;;;;;;6.57;1.92;;;;;;;12.24;100.00;100878.38;6191005;23;20325;-81
2023/09/19 05:58:10;;;;;;;13.30;2.30;;;;;;;12.28;100.00;100878.97;6218222;23;20017;-80
2023/09/19 06:00:37;;;;;;;8.48;2.00;;;;;;;12.32;100.00;100886.84;6218119;23;20017;-83
2023/09/19 06:03:06;;;;;;;9.20;2.30;;;;;;;12.35;100.00;100881.34;6197899;23;20026;-85
2023/09/19 06:05:33;;;;;;;10.43;2.20;;;;;;;12.37;100.00;100885.50;6193715;23;20475;-83
2023/09/19 06:08:00;;;;;;;6.70;2.28;;;;;;;12.37;100.00;100891.56;6220078;23;20017;-79
2023/09/19 06:10:29;;;;;;;8.23;2.10;;;;;;;12.41;100.00;100897.47;6191121;23;20076;-81
2023/09/19 06:12:57;;;;;;;6.63;2.40;;;;;;;12.45;100.00;100900.72;6193070;23;20087;-83
2023/09/19 06:15:25;;;;;;;6.72;2.05;;;;;;;12.49;100.00;100908.59;6167026;23;20383;-86
2023/09/19 06:17:55;;;;;;;8.02;1.98;;;;;;;12.52;100.00;100902.34;6193569;23;20021;-87
2023/09/19 06:20:23;;;;;;;10.70;2.58;;;;;;;12.55;100.00;100906.81;6193240;23;20013;-94
2023/09/19 06:22:51;;;;;;;9.90;2.83;;;;;;;12.60;100.00;100900.88;6220119;23;20076;-90
2023/09/19 06:25:21;;;;;;;6.80;1.98;;;;;;;12.65;100.00;100913.63;6191819;23;20072;-90
2023/09/19 06:27:59;;;;;;;12.45;2.53;;;;;;;12.68;100.00;100910.03;6169381;23;20017;-86
2023/09/19 06:30:26;;;;;;;11.30;2.70;;;;;;;12.77;100.00;100906.63;6192076;23;20017;-79
2023/09/19 06:33:03;;;;;;;7.70;2.05;;;;;;;12.87;100.00;100916.81;6193267;23;20036;-82
2023/09/19 06:35:34;;;;;;;8.00;2.30;;;;;;;12.91;100.00;100905.94;6221820;23;20013;-80
2023/09/19 06:38:05;;;;;;;9.48;2.53;;;;;;;12.96;100.00;100898.06;6168804;23;20023;-81
2023/09/19 06:40:34;;;;;;;10.73;1.98;;;;;;;12.98;100.00;100897.63;6169131;23;20027;-83
2023/09/19 06:43:03;;;;;;;5.70;2.03;;;;;;;12.98;100.00;100894.94;6170038;23;20427;-82
2023/09/19 06:45:31;;;;;;;9.15;2.35;;;;;;;13.01;100.00;100899.38;6195042;23;20144;-87
2023/09/19 06:48:00;;;;;;;7.32;2.08;;;;;;;13.08;100.00;100898.31;6194754;23;20024;-88
2023/09/19 06:50:30;;;;;;;9.80;2.35;;;;;;;13.11;100.00;100887.47;6193188;23;20432;-85
2023/09/19 06:52:59;;;;;;;9.90;2.33;;;;;;;13.18;100.00;100899.81;6192674;23;20035;-85
2023/09/19 06:55:27;;;;;;;8.85;2.40;;;;;;;13.22;100.00;100885.06;6167439;23;20037;-85
2023/09/19 06:57:55;;;;;;;8.95;2.17;;;;;;;13.26;100.00;100898.25;6167745;23;20406;-85
2023/09/19 07:00:23;;;;;;;10.80;2.40;;;;;;;13.30;100.00;100899.56;6193564;23;20467;-83
2023/09/19 07:02:58;;;;;;;6.25;2.20;;;;;;;13.35;100.00;100890.94;6169256;23;20368;-84
2023/09/19 07:05:27;;;;;;;9.02;2.40;;;;;;;13.40;100.00;100897.59;6193503;23;20013;-84
2023/09/19 07:07:58;;;;;;;17.30;2.58;;;;;;;13.45;100.00;100894.31;6191949;23;20017;-84
2023/09/19 07:10:27;;;;;;;9.73;2.58;;;;;;;13.54;100.00;100896.91;6166831;23;20021;-83
2023/09/19 07:12:58;;;;;;;10.07;2.42;;;;;;;13.61;100.00;100896.56;6219625;23;20072;-82
2023/09/19 07:15:29;;;;;;;5.90;2.22;;;;;;;13.69;100.00;100892.34;6191866;23;20398;-79
2023/09/19 07:17:56;;;;;;;;;;;;;;;13.74;100.00;100899.00;6220205;23;20045;-80
2023/09/19 07:20:28;;;;;;;7.10;2.03;;;;;;;13.82;100.00;100908.16;6193500;23;19920;-79
2023/09/19 07:22:55;;;;;;;7.93;2.13;;;;;;;13.89;100.00;100913.16;6193895;23;20022;-82
2023/09/19 07:25:21;;;;;;;12.32;2.92;;;;;;;13.96;100.00;100915.50;6193598;23;20017;-84
2023/09/19 07:27:48;;;;;;;14.48;2.28;;;;;;;14.01;100.00;100916.78;6220414;23;20024;-82
2023/09/19 07:30:16;;;;;;;10.40;2.28;;;;;;;14.10;100.00;100916.72;6194226;23;20041;-83
2023/09/19 07:32:43;;;;;;;12.50;2.72;;;;;;;14.17;99.54;100924.38;6193686;23;20057;-82
2023/09/19 07:35:11;;;;;;;8.40;2.10;;;;;;;14.22;100.00;100926.44;6193758;23;20083;-82
2023/09/19 07:37:38;;;;;;;13.48;2.17;;;;;;;14.30;100.00;100932.91;6168725;23;20024;-88
2023/09/19 07:40:07;;;;;;;7.15;2.40;;;;;;;14.41;99.17;100926.25;6172567;23;20494;-91
2023/09/19 07:42:35;;;;;;;11.90;2.60;;;;;;;14.47;98.14;100927.13;6223622;23;20811;-92
2023/09/19 07:45:01;;;;;;;10.55;2.45;;;;;;;14.56;98.41;100924.34;6173509;23;20469;-88
2023/09/19 07:47:30;;;;;;;7.35;2.35;;;;;;;14.66;97.75;100926.47;6171815;23;20025;-85
2023/09/19 07:49:56;;;;;;;8.00;2.17;;;;;;;14.78;96.23;100927.41;6172957;23;20017;-83
2023/09/19 07:52:23;;;;;;;13.07;3.92;;;;;;;14.89;95.53;100932.19;6193524;23;20094;-83
2023/09/19 07:54:50;;;;;;;19.00;2.78;;;;;;;15.02;96.02;100933.38;6171548;23;20481;-95
2023/09/19 07:57:17;;;;;;;7.10;2.25;;;;;;;15.10;94.91;100931.06;6195452;23;20384;-84
2023/09/19 07:59:43;;;;;;;15.98;3.22;;;;;;;15.22;95.26;100934.59;6198581;23;20017;-85
2023/09/19 08:02:15;;;;;;;12.02;2.33;;;;;;;15.27;94.70;100933.94;6206922;23;20036;-85
2023/09/19 08:04:46;;;;;;;10.55;2.50;;;;;;;15.34;93.21;100930.88;6179355;23;20581;-93
2023/09/19 08:07:13;;;;;;;10.50;2.30;;;;;;;15.46;93.39;100935.19;6201097;23;20021;-90
2023/09/19 08:09:40;;;;;;;8.45;2.47;;;;;;;15.57;92.71;100938.06;6194165;23;20442;-82
2023/09/19 08:12:10;;;;;;;5.88;1.98;;;;;;;15.66;90.86;100942.53;6193539;23;20076;-81
2023/09/19 08:14:37;;;;;;;12.00;2.55;;;;;;;15.71;91.81;100946.50;6222959;23;20084;-88
2023/09/19 08:17:05;;;;;;;5.95;2.58;;;;;;;15.81;91.96;100945.91;6223159;23;20088;-86
2023/09/19 08:19:32;;;;;;;11.43;2.70;;;;;;;15.78;91.52;100940.75;6219759;23;20024;-81
2023/09/19 08:21:59;;;;;;;15.93;3.25;;;;;;;15.78;90.70;100938.06;6192722;23;20032;-79
2023/09/19 08:24:28;;;;;;;14.15;2.65;;;;;;;15.76;90.95;100930.47;6191513;23;20043;-80
2023/09/19 08:26:56;;;;;;;10.20;2.50;;;;;;;15.80;90.41;100928.31;6219084;23;20021;-84
2023/09/19 08:29:27;;;;;;;11.90;2.15;;;;;;;15.84;90.22;100925.44;6191431;23;20021;-80
2023/09/19 08:31:55;;;;;;;10.30;3.00;;;;;;;15.88;89.69;100929.41;6219240;23;20092;-80
2023/09/19 08:34:26;;;;;;;12.07;2.60;;;;;;;15.94;90.36;100927.50;6191565;23;20013;-79
2023/09/19 08:36:57;;;;;;;6.47;2.55;;;;;;;16.01;89.35;100926.34;6219258;23;20017;-80
2023/09/19 08:39:25;;;;;;;7.03;2.40;;;;;;;16.04;90.02;100933.47;6218597;23;20013;-79
2023/09/19 08:41:59;;;;;;;14.70;3.10;;;;;;;16.10;89.56;100923.50;6218674;23;20024;-79
2023/09/19 08:44:30;;;;;;;11.70;2.50;;;;;;;16.18;90.09;100926.53;6191289;23;20117;-78
2023/09/19 08:47:14;;;;;;;12.25;3.45;;;;;;;16.22;90.04;100930.47;6219402;23;20020;-78
2023/09/19 08:50:13;;;;;;;12.88;2.60;;;;;;;16.26;88.07;100928.31;6219379;23;20013;-82
2023/09/19 08:52:42;;;;;;;11.70;2.90;;;;;;;16.33;88.98;100930.59;6219307;23;20027;-79
2023/09/19 08:55:13;;;;;;;10.38;3.03;;;;;;;16.47;87.42;100925.56;6219696;23;20013;-79
2023/09/19 08:57:43;;;;;;;9.57;2.70;;;;;;;16.59;87.64;100932.53;6219646;23;20036;-80
2023/09/19 09:00:12;;;;;;;10.15;2.70;;;;;;;16.73;85.97;100920.22;6219775;23;20013;-79
2023/09/19 09:02:42;;;;;;;10.88;2.67;;;;;;;16.88;84.66;100921.53;6218785;23;20105;-80
2023/09/19 09:05:10;;;;;;;11.25;2.50;;;;;;;16.97;84.77;100923.31;6218623;23;20009;-80
2023/09/19 09:07:38;;;;;;;9.52;2.38;;;;;;;17.09;83.25;100916.78;6219329;23;20013;-80
2023/09/19 09:10:06;;;;;;;10.95;3.53;;;;;;;17.10;83.06;100931.72;6168157;23;20076;-79
2023/09/19 09:12:36;;;;;;;12.05;2.63;;;;;;;17.04;82.68;100933.63;6219433;23;20025;-79
2023/09/19 09:15:03;;;;;;;11.30;2.65;;;;;;;16.96;84.24;100932.59;6219720;23;20013;-83
2023/09/19 09:17:30;;;;;;;11.43;2.95;;;;;;;17.01;82.61;100931.88;6192055;23;20064;-88
2023/09/19 09:19:57;;;;;;;9.27;2.58;;;;;;;17.04;83.22;100930.94;6220279;23;20029;-93
2023/09/19 09:22:24;;;;;;;8.75;2.30;;;;;;;17.19;82.78;100922.72;6220078;23;20045;-84
2023/09/19 09:24:58;;;;;;;13.63;2.88;;;;;;;17.24;82.38;100922.72;6192808;23;20064;-85
2023/09/19 09:27:25;;;;;;;11.77;2.28;;;;;;;17.32;84.88;100920.31;6219023;23;20023;-85
2023/09/19 09:29:54;;;;;;;8.27;2.60;;;;;;;17.33;80.97;100919.84;6193724;23;20418;-91
2023/09/19 09:32:36;;;;;;;10.10;2.20;;;;;;;17.41;82.19;100920.13;6219831;23;20856;-89
2023/09/19 09:35:14;;;;;;;12.73;2.78;;;;;;;17.42;81.64;100910.84;6221787;23;20017;-90
2023/09/19 09:37:43;;;;;;;16.35;2.95;;;;;;;17.42;81.10;100907.41;6193061;23;20009;-88
2023/09/19 09:42:41;;;;;;;10.07;2.58;;;;;;;17.65;79.41;100907.03;6194543;23;20032;-88
2023/09/19 09:45:14;;;;;;;7.30;2.63;;;;;;;17.87;79.50;100900.25;6220311;23;20834;-89
2023/09/19 09:47:57;;;;;;;6.03;2.28;;;;;;;17.86;78.63;100896.84;6198189;23;20044;-90
2023/09/19 09:51:07;;;;;;;13.30;2.50;;;;;;;18.03;78.40;100899.56;6196639;23;20017;-87
2023/09/19 09:53:37;;;;;;;8.32;2.08;;;;;;;18.08;75.88;100890.75;6191338;23;20074;-92
2023/09/19 09:56:06;;;;;;;9.50;2.70;;;;;;;18.07;76.26;100902.00;6220971;23;20100;-84
2023/09/19 09:58:40;;;;;;;11.30;2.22;;;;;;;18.04;76.74;100889.50;6195162;23;20350;-86
2023/09/19 10:01:10;;;;;;;10.02;2.55;;;;;;;18.00;76.43;100895.88;6226382;23;20076;-90
2023/09/19 10:03:40;;;;;;;12.82;2.85;;;;;;;17.89;78.46;100900.53;6226531;23;20092;-86
2023/09/19 10:06:25;;;;;;;10.90;2.70;;;;;;;17.91;78.47;100885.34;6193515;23;20017;-78
2023/09/19 10:09:05;;;;;;;10.00;2.42;;;;;;;17.91;78.50;100895.38;6193070;23;20017;-80
2023/09/19 10:11:32;;;;;;;10.68;2.20;;;;;;;18.07;75.67;100902.75;6192400;23;20418;-77
2023/09/19 10:14:06;;;;;;;9.18;2.85;;;;;;;17.93;77.19;100901.75;6193123;23;20375;-79
2023/09/19 10:16:36;;;;;;;10.20;2.30;;;;;;;17.92;76.70;100911.06;6218599;23;20024;-77
2023/09/19 10:19:07;;;;;;;10.57;2.53;;;;;;;17.86;75.81;100912.25;6219957;23;20013;-80
2023/09/19 10:21:36;;;;;;;11.35;2.88;;;;;;;17.79;75.75;100910.03;6219766;23;20439;-88
2023/09/19 10:24:07;;;;;;;8.02;2.17;;;;;;;17.74;75.95;100910.75;6219685;23;20024;-82
2023/09/19 10:26:36;;;;;;;6.40;1.90;;;;;;;17.93;76.09;100901.75;6192366;23;20068;-79
2023/09/19 10:29:07;;;;;;;13.10;2.10;;;;;;;18.22;75.79;100889.06;6219500;23;20045;-79
2023/09/19 10:31:36;;;;;;;6.15;2.00;;;;;;;18.37;75.32;100878.06;6218632;23;20017;-78
2023/09/19 10:34:04;;;;;;;9.57;2.15;;;;;;;18.42;73.58;100874.59;6192135;23;20035;-82
2023/09/19 10:36:35;;;;;;;10.88;2.13;;;;;;;18.46;73.99;100877.78;6192462;23;20025;-79
2023/09/19 10:39:06;;;;;;;10.35;2.42;;;;;;;18.52;73.30;100876.56;6192933;23;20355;-82
2023/09/19 10:41:34;;;;;;;12.05;2.58;;;;;;;18.70;73.71;100856.50;6218685;23;20024;-78
2023/09/19 10:44:04;;;;;;;5.93;2.00;;;;;;;18.77;72.77;100869.47;6219233;23;20489;-82
2023/09/19 10:46:33;;;;;;;5.63;2.33;;;;;;;18.67;73.88;100857.47;6192066;23;20032;-84
2023/09/19 10:49:01;;;;;;;10.52;2.60;;;;;;;18.67;72.34;100859.44;6192772;23;20068;-85
2023/09/19 10:51:31;;;;;;;4.40;2.13;;;;;;;18.64;73.16;100853.81;6218630;23;20403;-86
2023/09/19 10:54:11;;;;;;;7.40;2.10;;;;;;;18.63;74.05;100862.38;6193281;23;20021;-88
2023/09/19 10:56:42;;;;;;;7.72;2.50;;;;;;;18.58;73.77;100844.22;6192599;23;20124;-86
2023/09/19 10:59:10;;;;;;;8.05;2.13;;;;;;;18.67;73.38;100854.78;6218506;23;20013;-84
2023/09/19 11:02:01;;;;;;;5.97;2.30;;;;;;;18.83;73.35;100840.50;6219103;23;20224;-83
2023/09/19 11:04:30;;;;;;;6.03;2.10;;;;;;;18.90;73.07;100848.09;6192312;23;20021;-86
2023/09/19 11:07:03;;;;;;;4.95;2.13;;;;;;;19.01;72.73;100843.91;6192346;23;20779;-86
2023/09/19 11:09:51;;;;;;;9.57;2.42;;;;;;;19.15;73.24;100834.78;6192362;23;20068;-85
2023/09/19 11:12:28;;;;;;;11.88;2.60;;;;;;;19.20;72.15;100825.91;6192429;23;20017;-88
2023/09/19 11:14:55;;;;;;;11.02;2.15;;;;;;;19.14;70.84;100827.94;6192264;23;20092;-84
2023/09/19 11:17:33;;;;;;;8.20;1.85;;;;;;;19.01;72.30;100839.25;6192082;23;20148;-88
2023/09/19 11:22:51;;;;;;;12.02;2.30;;;;;;;19.09;72.12;100834.81;6192753;23;20033;-85
2023/09/19 11:25:30;;;;;;;7.38;2.22;;;;;;;19.17;71.57;100833.06;6219329;23;20469;-85
2023/09/19 11:28:17;;;;;;;9.77;2.50;;;;;;;19.37;70.89;100833.97;6219727;23;20051;-86
2023/09/19 11:30:46;;;;;;;11.68;2.25;;;;;;;19.42;70.79;100836.63;6195258;23;20013;-85
2023/09/19 11:33:33;;;;;;;9.88;1.98;;;;;;;19.26;70.96;100835.47;6220410;23;20021;-82
2023/09/19 11:36:02;;;;;;;11.70;2.40;;;;;;;19.02;71.08;100824.53;6194587;23;20103;-85